Time;durP1;ratioP1;P1;durP2;ratioP2;P2;SDS_P1;SDS_P2;PMS_P1;PMS_P2;Temp;Humidity;BMP_temperature;BMP_pressure;BME280_temperature;BME280_humidity;BME280_pressure;Samples;Min_cycle;Max_cycle;Signal;HPM_P1;HPM_P2
2023/07/20 00:02:56;;;;;;;6.93;4.20;;;25.60;59.20;;;;;;6149660;27;80539;-56
2023/07/20 00:05:56;;;;;;;8.57;4.47;;;25.60;59.00;;;;;;6158847;27;80430;-59
2023/07/20 00:08:58;;;;;;;9.73;4.13;;;25.50;59.00;;;;;;6149873;27;80157;-58
2023/07/20 00:12:00;;;;;;;10.00;4.75;;;25.30;58.80;;;;;;6162766;27;80444;-57
2023/07/20 00:15:00;;;;;;;9.27;3.55;;;25.20;58.80;;;;;;6150450;27;80898;-58
2023/07/20 00:18:01;;;;;;;7.18;3.88;;;25.00;58.20;;;;;;6151283;27;81471;-57
2023/07/20 00:21:01;;;;;;;5.90;3.75;;;24.90;58.20;;;;;;6154213;27;80904;-58
2023/07/20 00:24:02;;;;;;;6.15;3.60;;;25.00;58.00;;;;;;6150773;27;80460;-58
2023/07/20 00:27:02;;;;;;;5.85;4.22;;;24.90;58.30;;;;;;6163242;27;81849;-59
2023/07/20 00:30:04;;;;;;;7.82;4.13;;;25.10;58.20;;;;;;6151401;27;80660;-57
2023/07/20 00:33:06;;;;;;;7.00;4.40;;;25.30;57.80;;;;;;6162602;27;81601;-58
2023/07/20 00:36:06;;;;;;;6.35;4.18;;;25.40;57.60;;;;;;6153124;27;80554;-57
2023/07/20 00:39:07;;;;;;;6.15;3.80;;;25.40;57.50;;;;;;6148673;27;83556;-57
2023/07/20 00:42:08;;;;;;;6.55;3.70;;;25.20;57.70;;;;;;6164062;27;81448;-57
2023/07/20 00:45:09;;;;;;;5.85;3.72;;;25.10;57.90;;;;;;6169084;27;83939;-56
2023/07/20 00:48:09;;;;;;;7.60;3.55;;;25.20;58.10;;;;;;6161526;27;82749;-54
2023/07/20 00:51:10;;;;;;;8.80;3.70;;;25.30;57.70;;;;;;6171388;27;83496;-56
2023/07/20 00:54:11;;;;;;;6.05;3.83;;;25.40;57.40;;;;;;6157040;27;83410;-56
2023/07/20 00:57:11;;;;;;;5.90;3.30;;;25.50;57.20;;;;;;6162159;27;83212;-56
2023/07/20 01:00:12;;;;;;;4.28;3.03;;;25.60;57.30;;;;;;6161654;27;80500;-57
2023/07/20 01:03:13;;;;;;;5.07;3.65;;;25.70;57.00;;;;;;6161981;27;81313;-52
2023/07/20 01:06:13;;;;;;;6.05;3.35;;;25.50;56.70;;;;;;6173282;27;81670;-49
2023/07/20 01:09:14;;;;;;;8.98;3.65;;;25.30;56.90;;;;;;6169230;27;83780;-54
2023/07/20 01:12:15;;;;;;;8.57;4.05;;;25.10;57.50;;;;;;6179467;27;80724;-53
2023/07/20 01:15:16;;;;;;;4.55;3.28;;;25.20;58.00;;;;;;6175613;27;80399;-52
2023/07/20 01:18:16;;;;;;;7.63;3.88;;;25.30;57.30;;;;;;6175859;27;80288;-52
2023/07/20 01:21:17;;;;;;;6.88;3.95;;;25.50;57.20;;;;;;6174507;27;80612;-52
2023/07/20 01:24:17;;;;;;;4.88;3.45;;;25.70;56.90;;;;;;6156215;27;82044;-52
2023/07/20 01:27:18;;;;;;;8.70;4.15;;;25.80;56.80;;;;;;6155152;27;80513;-50
2023/07/20 01:30:18;;;;;;;6.75;3.53;;;25.90;56.80;;;;;;6153384;27;81891;-51
2023/07/20 01:33:19;;;;;;;6.63;4.22;;;25.90;56.40;;;;;;6158957;27;84222;-53
2023/07/20 01:36:20;;;;;;;8.05;3.53;;;26.00;56.10;;;;;;6165467;27;80904;-52
2023/07/20 01:39:20;;;;;;;8.10;4.13;;;25.90;55.80;;;;;;6152602;27;83039;-52
2023/07/20 01:42:21;;;;;;;6.47;4.05;;;25.80;56.80;;;;;;6151749;27;81961;-54
2023/07/20 01:45:21;;;;;;;10.57;4.22;;;25.70;57.60;;;;;;6165546;27;80757;-56
2023/07/20 01:48:22;;;;;;;8.70;4.43;;;25.70;58.00;;;;;;6153227;27;80504;-55
2023/07/20 01:51:22;;;;;;;9.88;4.53;;;25.90;58.10;;;;;;6177574;27;83997;-53
2023/07/20 01:54:23;;;;;;;7.03;4.63;;;25.80;58.20;;;;;;6184012;27;80157;-53
2023/07/20 01:57:23;;;;;;;8.65;4.22;;;25.90;58.20;;;;;;6174814;27;81771;-54
2023/07/20 02:00:25;;;;;;;6.60;4.15;;;25.80;58.40;;;;;;6172535;27;82815;-48
2023/07/20 02:03:26;;;;;;;8.38;4.28;;;25.80;58.50;;;;;;6174038;27;80409;-47
2023/07/20 02:06:27;;;;;;;9.38;4.70;;;25.90;58.50;;;;;;6184490;27;82386;-48
2023/07/20 02:09:27;;;;;;;7.10;4.10;;;25.90;58.50;;;;;;6171326;27;81069;-47
2023/07/20 02:12:28;;;;;;;11.32;5.15;;;25.90;58.70;;;;;;6157565;27;84228;-49
2023/07/20 02:15:28;;;;;;;11.52;4.35;;;25.90;58.70;;;;;;6161647;27;82203;-51
2023/07/20 02:18:29;;;;;;;7.05;4.45;;;25.90;59.00;;;;;;6164251;27;84672;-57
2023/07/20 02:21:30;;;;;;;8.73;4.68;;;25.90;59.20;;;;;;6171102;27;83610;-56
2023/07/20 02:24:30;;;;;;;13.90;5.15;;;25.90;58.90;;;;;;6161215;27;83197;-54
2023/07/20 02:27:30;;;;;;;8.90;4.55;;;26.00;58.80;;;;;;6186696;27;80877;-56
2023/07/20 02:30:31;;;;;;;9.60;4.43;;;26.00;58.90;;;;;;6167751;27;80515;-57
2023/07/20 02:33:31;;;;;;;9.98;4.85;;;26.10;58.80;;;;;;6174090;27;81795;-55
2023/07/20 02:36:35;;;;;;;7.40;4.63;;;26.10;58.80;;;;;;6162575;27;82870;-64
2023/07/20 02:39:36;;;;;;;6.65;4.20;;;26.10;58.80;;;;;;6158354;27;83826;-63
2023/07/20 02:42:36;;;;;;;11.95;5.53;;;26.20;58.90;;;;;;6167887;27;83917;-66
2023/07/20 02:45:37;;;;;;;7.55;4.85;;;26.20;58.90;;;;;;6175076;27;80206;-65
2023/07/20 02:48:37;;;;;;;8.23;4.63;;;26.20;58.80;;;;;;6171018;27;80632;-62
2023/07/20 02:51:38;;;;;;;8.10;4.75;;;26.20;58.70;;;;;;6169504;27;80309;-65
2023/07/20 02:54:38;;;;;;;8.70;4.65;;;26.20;58.70;;;;;;6168427;27;83216;-53
2023/07/20 02:57:39;;;;;;;8.85;4.68;;;26.20;58.70;;;;;;6176585;27;80526;-52
2023/07/20 03:00:39;;;;;;;10.68;5.15;;;26.20;58.50;;;;;;6186780;27;80226;-56
2023/07/20 03:03:40;;;;;;;7.20;4.70;;;26.10;58.30;;;;;;6183071;27;82378;-55
2023/07/20 03:06:41;;;;;;;8.38;4.70;;;26.00;58.60;;;;;;6175718;27;81425;-54
2023/07/20 03:09:42;;;;;;;9.57;4.95;;;25.90;58.90;;;;;;6173474;27;82115;-55
2023/07/20 03:12:43;;;;;;;6.88;4.88;;;25.90;59.00;;;;;;6180268;27;80522;-69
2023/07/20 03:15:44;;;;;;;8.90;4.55;;;25.80;59.10;;;;;;6183204;27;83279;-69
2023/07/20 03:18:44;;;;;;;10.52;4.97;;;25.70;59.20;;;;;;6179605;27;83483;-65
2023/07/20 03:21:45;;;;;;;8.65;4.60;;;25.70;59.40;;;;;;6184730;27;81970;-68
2023/07/20 03:24:46;;;;;;;7.60;4.63;;;25.60;59.70;;;;;;6186855;27;80327;-67
2023/07/20 03:27:46;;;;;;;6.50;4.55;;;25.70;59.80;;;;;;6173264;27;80772;-68
2023/07/20 03:30:47;;;;;;;8.98;5.00;;;25.70;59.80;;;;;;6165942;27;83303;-66
2023/07/20 03:33:47;;;;;;;5.75;4.15;;;25.70;59.70;;;;;;6164586;27;83554;-69
2023/07/20 03:36:48;;;;;;;14.90;5.05;;;25.70;59.70;;;;;;6145065;27;82967;-73
2023/07/20 03:39:49;;;;;;;8.55;4.22;;;25.70;59.70;;;;;;6165393;27;83415;-73
2023/07/20 03:42:49;;;;;;;7.18;4.68;;;25.70;59.90;;;;;;6162692;27;83984;-69
2023/07/20 03:45:50;;;;;;;7.10;4.72;;;25.70;59.80;;;;;;6150546;27;80827;-63
2023/07/20 03:48:51;;;;;;;21.73;5.25;;;25.70;59.80;;;;;;6154780;27;82035;-64
2023/07/20 03:51:53;;;;;;;9.18;3.97;;;25.70;59.80;;;;;;6155103;27;85073;-70
2023/07/20 03:54:53;;;;;;;7.20;4.32;;;25.80;59.80;;;;;;6156729;27;84542;-65
2023/07/20 03:57:54;;;;;;;7.85;3.67;;;25.70;59.90;;;;;;6164997;27;82284;-76
2023/07/20 04:00:54;;;;;;;6.65;3.53;;;25.70;59.90;;;;;;6153365;27;80308;-66
2023/07/20 04:03:55;;;;;;;6.00;3.97;;;25.70;59.80;;;;;;6151189;27;84562;-63
2023/07/20 04:06:55;;;;;;;10.50;4.32;;;25.80;59.90;;;;;;6161834;27;83648;-65
2023/07/20 04:09:56;;;;;;;9.43;3.92;;;25.80;59.80;;;;;;6158754;27;81225;-68
2023/07/20 04:12:56;;;;;;;8.85;4.30;;;25.80;60.10;;;;;;6151434;27;80610;-70
2023/07/20 04:15:57;;;;;;;6.35;3.63;;;25.90;60.10;;;;;;6153494;27;82827;-64
2023/07/20 04:18:58;;;;;;;8.68;4.30;;;25.90;60.40;;;;;;6155176;27;81600;-63
2023/07/20 04:21:58;;;;;;;21.88;3.88;;;26.00;60.40;;;;;;6150483;27;81962;-60
2023/07/20 04:24:59;;;;;;;9.18;3.75;;;26.00;60.60;;;;;;6162888;27;83163;-67
2023/07/20 04:27:59;;;;;;;7.85;4.10;;;26.10;60.70;;;;;;6166903;27;82078;-63
2023/07/20 04:31:00;;;;;;;7.57;4.07;;;26.10;60.60;;;;;;6160952;27;80714;-66
2023/07/20 04:34:01;;;;;;;10.90;3.78;;;26.10;60.60;;;;;;6162096;27;83147;-66
2023/07/20 04:37:01;;;;;;;7.43;3.75;;;26.10;60.40;;;;;;6148534;27;82103;-66
2023/07/20 04:40:03;;;;;;;10.90;3.45;;;26.10;60.20;;;;;;6148972;27;82198;-69
2023/07/20 04:43:03;;;;;;;9.80;3.97;;;26.20;60.10;;;;;;6147143;27;83136;-59
2023/07/20 04:46:04;;;;;;;4.80;3.20;;;26.20;60.20;;;;;;6160726;27;84544;-58
2023/07/20 04:49:07;;;;;;;9.25;3.83;;;26.20;60.00;;;;;;6148613;27;83386;-58
2023/07/20 04:52:11;;;;;;;6.55;3.30;;;26.20;59.90;;;;;;6168581;27;82875;-60
2023/07/20 04:55:12;;;;;;;16.25;4.20;;;26.20;59.90;;;;;;6162006;27;81038;-58
2023/07/20 04:58:13;;;;;;;11.27;3.50;;;26.20;60.00;;;;;;6162304;27;83327;-58
2023/07/20 05:01:13;;;;;;;5.55;3.30;;;26.20;59.70;;;;;;6161444;27;83118;-62
2023/07/20 05:04:14;;;;;;;8.57;4.13;;;26.20;59.40;;;;;;6161117;27;83220;-64
2023/07/20 05:07:14;;;;;;;11.15;4.88;;;26.20;59.20;;;;;;6155881;27;83059;-63
2023/07/20 05:10:15;;;;;;;8.13;4.20;;;26.10;58.50;;;;;;6160566;27;83257;-62
2023/07/20 05:13:16;;;;;;;9.27;3.90;;;26.10;58.50;;;;;;6152918;27;80741;-64
2023/07/20 05:16:17;;;;;;;5.72;3.92;;;26.10;58.50;;;;;;6158717;27;81319;-63
2023/07/20 05:19:17;;;;;;;6.22;4.05;;;26.10;58.50;;;;;;6140617;27;83579;-62
2023/07/20 05:22:18;;;;;;;13.70;3.97;;;26.20;58.40;;;;;;6163897;27;83789;-51
2023/07/20 05:25:19;;;;;;;8.90;3.58;;;26.20;58.40;;;;;;6158951;27;82654;-56
2023/07/20 05:28:19;;;;;;;7.55;3.75;;;26.20;58.10;;;;;;6156472;27;80332;-54
2023/07/20 05:31:20;;;;;;;8.75;4.05;;;26.20;58.10;;;;;;6171774;27;82198;-53
2023/07/20 05:34:20;;;;;;;7.95;3.72;;;26.20;57.70;;;;;;6147191;27;80176;-51
2023/07/20 05:37:21;;;;;;;7.25;4.00;;;26.20;57.80;;;;;;6148585;27;81198;-52
2023/07/20 05:40:22;;;;;;;11.60;4.63;;;26.20;57.70;;;;;;6146894;27;80247;-53
2023/07/20 05:43:22;;;;;;;8.32;4.00;;;26.20;57.50;;;;;;6154493;27;81010;-48
2023/07/20 05:46:24;;;;;;;6.93;3.83;;;26.30;57.70;;;;;;6156133;27;80809;-54
2023/07/20 05:49:24;;;;;;;7.65;3.47;;;26.30;57.50;;;;;;6159075;27;80490;-52
2023/07/20 05:52:25;;;;;;;6.60;3.53;;;26.30;57.30;;;;;;6170899;27;82577;-53
2023/07/20 05:55:26;;;;;;;12.30;4.82;;;26.30;57.20;;;;;;6170455;27;82922;-51
2023/07/20 05:58:26;;;;;;;8.50;3.85;;;26.20;56.90;;;;;;6149999;27;80861;-60
2023/07/20 06:01:28;;;;;;;7.88;3.55;;;26.20;57.00;;;;;;6157606;27;80554;-59
2023/07/20 06:04:28;;;;;;;5.90;3.28;;;26.20;56.90;;;;;;6172423;27;81549;-59
2023/07/20 06:07:29;;;;;;;7.78;4.38;;;26.30;57.10;;;;;;6174315;27;80708;-58
2023/07/20 06:10:29;;;;;;;10.93;4.25;;;26.30;56.70;;;;;;6163266;27;80511;-58
2023/07/20 06:13:30;;;;;;;6.30;3.30;;;26.30;56.80;;;;;;6167140;27;80843;-60
2023/07/20 06:16:31;;;;;;;9.45;3.70;;;26.30;56.60;;;;;;6161612;27;80815;-60
2023/07/20 06:19:32;;;;;;;9.48;4.40;;;26.30;56.60;;;;;;6165350;27;80303;-61
2023/07/20 06:22:32;;;;;;;8.75;3.72;;;26.20;56.80;;;;;;6169515;27;81491;-61
2023/07/20 06:25:33;;;;;;;9.43;3.72;;;26.30;56.90;;;;;;6167264;27;80829;-60
2023/07/20 06:28:33;;;;;;;12.55;3.72;;;26.30;56.60;;;;;;6165408;27;81140;-58
2023/07/20 06:31:34;;;;;;;8.10;3.80;;;26.20;56.20;;;;;;6164259;27;80576;-58
2023/07/20 06:34:37;;;;;;;7.88;4.07;;;26.20;56.20;;;;;;6180216;27;81071;-53
2023/07/20 06:37:38;;;;;;;10.43;3.25;;;26.20;56.10;;;;;;6169268;27;83274;-58
2023/07/20 06:40:39;;;;;;;8.48;3.33;;;26.20;56.10;;;;;;6179284;27;81094;-53
2023/07/20 06:43:39;;;;;;;5.53;3.25;;;26.20;55.80;;;;;;6166228;27;80596;-48
2023/07/20 06:46:40;;;;;;;6.38;3.53;;;26.20;55.70;;;;;;6165968;27;81908;-52
2023/07/20 06:49:40;;;;;;;6.20;3.00;;;26.20;55.80;;;;;;6173137;27;80485;-51
2023/07/20 06:52:41;;;;;;;12.80;3.40;;;26.30;55.90;;;;;;6178311;27;80854;-54
2023/07/20 06:55:41;;;;;;;7.07;2.97;;;26.40;55.90;;;;;;6174393;27;80726;-53
2023/07/20 06:58:42;;;;;;;10.30;3.05;;;26.30;55.60;;;;;;6172076;27;80318;-54
2023/07/20 07:01:42;;;;;;;12.10;3.47;;;26.40;55.60;;;;;;6178714;27;83080;-52
2023/07/20 07:04:43;;;;;;;14.18;4.72;;;26.40;57.00;;;;;;6163697;27;80694;-51
2023/07/20 07:07:44;;;;;;;6.43;3.13;;;26.40;57.60;;;;;;6166897;27;80656;-54
2023/07/20 07:10:44;;;;;;;6.07;3.13;;;26.50;56.90;;;;;;6160522;27;86070;-53
2023/07/20 07:13:46;;;;;;;9.63;3.78;;;26.50;57.50;;;;;;6159737;27;80820;-53
2023/07/20 07:16:47;;;;;;;6.57;3.38;;;26.60;59.10;;;;;;6157790;27;82587;-49
2023/07/20 07:19:48;;;;;;;16.13;3.50;;;26.60;58.00;;;;;;6156927;27;81253;-55
2023/07/20 07:22:49;;;;;;;8.00;3.13;;;26.50;57.60;;;;;;6157530;27;81425;-53
2023/07/20 07:25:49;;;;;;;6.63;3.25;;;26.50;57.30;;;;;;6156524;27;80893;-54
2023/07/20 07:28:50;;;;;;;5.57;2.83;;;26.50;57.50;;;;;;6168866;27;80701;-55
2023/07/20 07:31:50;;;;;;;5.80;3.05;;;26.60;57.80;;;;;;6161803;27;81239;-52
2023/07/20 07:34:51;;;;;;;7.32;3.20;;;26.60;56.80;;;;;;6177132;27;80615;-49
2023/07/20 07:37:51;;;;;;;32.47;3.08;;;26.60;56.50;;;;;;6169241;27;81117;-56
2023/07/20 07:40:52;;;;;;;5.93;3.25;;;26.60;56.30;;;;;;6168893;27;84935;-54
2023/07/20 07:43:53;;;;;;;5.72;2.85;;;26.60;56.00;;;;;;6170288;27;81791;-52
2023/07/20 07:46:53;;;;;;;6.35;2.88;;;26.60;56.10;;;;;;6172267;27;80713;-58
2023/07/20 07:49:54;;;;;;;4.88;2.80;;;26.60;55.80;;;;;;6169645;27;80669;-58
2023/07/20 07:52:54;;;;;;;3.90;2.90;;;26.60;55.70;;;;;;6171344;27;83912;-59
2023/07/20 07:55:55;;;;;;;7.32;3.28;;;26.50;55.80;;;;;;6163749;27;80609;-59
2023/07/20 07:58:56;;;;;;;8.68;3.58;;;26.50;55.70;;;;;;6168513;27;80728;-60
2023/07/20 08:01:58;;;;;;;8.18;3.40;;;26.50;55.90;;;;;;6163278;27;80945;-60
2023/07/20 08:05:00;;;;;;;6.13;3.22;;;26.50;55.50;;;;;;6161038;27;81573;-58
2023/07/20 08:08:01;;;;;;;5.50;3.28;;;26.50;55.90;;;;;;6160651;27;80377;-53
2023/07/20 08:11:01;;;;;;;5.85;3.33;;;26.60;55.80;;;;;;6171989;27;80367;-53
2023/07/20 08:14:02;;;;;;;7.15;3.42;;;26.50;55.80;;;;;;6170194;27;81354;-51
2023/07/20 08:17:03;;;;;;;41.85;20.30;;;26.50;56.10;;;;;;6146820;27;81532;-50
2023/07/20 08:20:03;;;;;;;161.68;88.93;;;26.50;56.20;;;;;;6160330;27;86740;-50
2023/07/20 08:23:04;;;;;;;176.80;93.38;;;26.60;56.20;;;;;;6158596;27;83778;-57
2023/07/20 08:26:04;;;;;;;171.18;95.10;;;26.60;56.20;;;;;;6159126;27;83620;-67
2023/07/20 08:29:05;;;;;;;178.77;96.35;;;26.70;56.30;;;;;;6151741;27;84663;-67
2023/07/20 08:32:06;;;;;;;137.05;69.65;;;26.70;56.50;;;;;;6163918;27;83462;-66
2023/07/20 08:35:06;;;;;;;100.47;52.95;;;26.70;57.00;;;;;;6155192;27;83249;-67
2023/07/20 08:38:07;;;;;;;96.88;51.65;;;26.70;56.20;;;;;;6160432;27;83412;-64
2023/07/20 08:41:08;;;;;;;108.63;53.05;;;26.60;55.70;;;;;;6153916;27;82998;-67
2023/07/20 08:44:08;;;;;;;90.32;42.70;;;26.70;55.90;;;;;;6170144;27;85460;-64
2023/07/20 08:47:09;;;;;;;47.03;21.98;;;26.60;55.90;;;;;;6159938;27;84298;-68
2023/07/20 08:50:09;;;;;;;30.92;15.57;;;26.60;56.00;;;;;;6164048;27;83105;-73
2023/07/20 08:53:10;;;;;;;31.80;14.80;;;26.60;56.00;;;;;;6172764;27;83481;-69
2023/07/20 08:56:11;;;;;;;21.15;11.57;;;26.60;56.20;;;;;;6177293;27;83420;-64
2023/07/20 08:59:11;;;;;;;19.45;10.60;;;26.60;56.00;;;;;;6168310;27;83286;-63
2023/07/20 09:02:12;;;;;;;12.73;7.80;;;26.60;55.90;;;;;;6170342;27;83705;-49
2023/07/20 09:05:14;;;;;;;13.60;5.85;;;26.60;55.90;;;;;;6170730;27;82344;-50
2023/07/20 09:08:14;;;;;;;9.13;4.72;;;26.60;55.60;;;;;;6177983;27;80335;-49
2023/07/20 09:11:15;;;;;;;16.73;5.25;;;26.60;55.80;;;;;;6174543;27;80643;-52
2023/07/20 09:14:15;;;;;;;9.57;5.15;;;26.60;55.90;;;;;;6173012;27;80821;-50
2023/07/20 09:17:16;;;;;;;14.00;5.20;;;26.60;55.80;;;;;;6174429;27;80682;-48
2023/07/20 09:20:16;;;;;;;7.25;4.15;;;26.60;55.80;;;;;;6166253;27;83835;-57
2023/07/20 09:23:17;;;;;;;9.90;4.53;;;26.60;56.10;;;;;;6169510;27;80543;-59
2023/07/20 09:26:17;;;;;;;4.95;3.28;;;26.60;55.60;;;;;;6167576;27;82521;-56
2023/07/20 09:29:18;;;;;;;7.70;3.55;;;26.70;56.00;;;;;;6169869;27;81000;-58
2023/07/20 09:32:19;;;;;;;7.97;3.25;;;26.60;56.20;;;;;;6162994;27;80856;-56
2023/07/20 09:35:20;;;;;;;6.22;3.25;;;26.70;56.20;;;;;;6178728;27;80301;-57
2023/07/20 09:38:20;;;;;;;5.40;3.15;;;26.70;55.60;;;;;;6158106;27;81993;-56
2023/07/20 09:41:21;;;;;;;6.15;2.65;;;26.70;56.00;;;;;;6173306;27;80893;-58
2023/07/20 09:44:21;;;;;;;5.85;2.97;;;26.70;55.80;;;;;;6168837;27;82624;-58
2023/07/20 09:47:22;;;;;;;6.22;2.70;;;26.70;55.90;;;;;;6177750;27;81302;-55
2023/07/20 09:50:23;;;;;;;8.10;2.85;;;26.70;55.90;;;;;;6167009;27;80243;-56
2023/07/20 09:53:23;;;;;;;4.82;2.55;;;26.80;55.80;;;;;;6171927;27;80751;-55
2023/07/20 09:56:24;;;;;;;7.95;2.55;;;26.70;54.50;;;;;;6173329;27;81908;-57
2023/07/20 09:59:24;;;;;;;8.35;2.40;;;26.70;54.70;;;;;;6171577;27;80398;-55
2023/07/20 10:02:25;;;;;;;4.57;2.42;;;26.70;54.90;;;;;;6175119;27;80720;-58
2023/07/20 10:05:25;;;;;;;7.00;2.70;;;26.80;55.10;;;;;;6171832;27;82354;-59
2023/07/20 10:08:26;;;;;;;4.13;2.45;;;26.80;54.90;;;;;;6183189;27;82624;-58
2023/07/20 10:11:26;;;;;;;3.05;2.08;;;26.80;55.20;;;;;;6172247;27;80771;-57
2023/07/20 10:14:27;;;;;;;3.03;2.30;;;26.90;55.20;;;;;;6173528;27;80610;-51
2023/07/20 10:17:28;;;;;;;5.32;2.20;;;26.90;55.20;;;;;;6169535;27;80762;-54
2023/07/20 10:20:28;;;;;;;5.68;2.53;;;26.90;54.90;;;;;;6176183;27;80524;-50
2023/07/20 10:23:29;;;;;;;8.43;2.47;;;26.90;54.90;;;;;;6169944;27;81121;-55
2023/07/20 10:26:29;;;;;;;3.38;2.15;;;26.90;54.60;;;;;;6173892;27;81567;-52
2023/07/20 10:29:30;;;;;;;7.20;2.25;;;26.90;54.50;;;;;;6165181;27;85521;-52
2023/07/20 10:32:30;;;;;;;2.70;2.10;;;26.90;53.40;;;;;;6174900;27;80478;-49
2023/07/20 10:35:31;;;;;;;7.35;2.00;;;26.90;54.00;;;;;;6174402;27;82629;-52
2023/07/20 10:38:32;;;;;;;5.45;2.05;;;26.90;52.90;;;;;;6186463;27;81278;-52
2023/07/20 10:41:32;;;;;;;6.30;2.25;;;26.90;53.30;;;;;;6172356;27;82305;-53
2023/07/20 10:44:33;;;;;;;5.50;2.05;;;27.00;54.90;;;;;;6175718;27;80618;-50
2023/07/20 10:47:33;;;;;;;4.03;2.05;;;27.00;55.50;;;;;;6160831;27;81708;-49
2023/07/20 10:50:34;;;;;;;3.95;1.92;;;27.10;56.10;;;;;;6172179;27;80290;-65
2023/07/20 10:53:35;;;;;;;5.07;2.22;;;27.10;55.90;;;;;;6171958;27;80786;-67
2023/07/20 10:56:35;;;;;;;6.43;2.50;;;27.10;56.40;;;;;;6163269;27;80402;-66
2023/07/20 10:59:36;;;;;;;3.42;1.88;;;27.10;56.00;;;;;;6165588;27;82050;-67
2023/07/20 11:02:36;;;;;;;4.00;2.10;;;27.10;56.90;;;;;;6160701;27;81067;-66
2023/07/20 11:05:37;;;;;;;4.10;2.17;;;27.20;57.50;;;;;;6166427;27;81789;-67
2023/07/20 11:08:37;;;;;;;4.10;2.17;;;27.20;55.30;;;;;;6179425;27;80602;-67
2023/07/20 11:11:38;;;;;;;3.97;2.30;;;27.20;56.40;;;;;;6183158;27;83862;-49
2023/07/20 11:14:38;;;;;;;11.93;2.63;;;27.20;56.10;;;;;;6168792;27;80711;-49
2023/07/20 11:17:39;;;;;;;6.18;1.90;;;27.30;53.20;;;;;;6169283;27;80709;-50
2023/07/20 11:20:39;;;;;;;10.65;2.58;;;27.30;54.10;;;;;;6175360;27;81479;-53
2023/07/20 11:23:40;;;;;;;3.03;2.05;;;27.30;54.70;;;;;;6164343;27;80287;-51
2023/07/20 11:26:41;;;;;;;3.90;2.00;;;27.30;54.50;;;;;;6169471;27;81153;-52
2023/07/20 11:29:41;;;;;;;9.85;2.17;;;27.40;55.00;;;;;;6164604;27;80399;-63
2023/07/20 11:32:42;;;;;;;1.92;1.77;;;27.40;55.10;;;;;;6166717;27;80184;-64
2023/07/20 11:35:43;;;;;;;8.15;2.53;;;27.30;55.30;;;;;;6159329;27;80512;-63
2023/07/20 11:38:43;;;;;;;11.20;2.35;;;27.40;55.10;;;;;;6160314;27;83075;-63
2023/07/20 11:41:44;;;;;;;6.32;2.47;;;27.40;54.20;;;;;;6160661;27;80345;-65
2023/07/20 11:44:44;;;;;;;6.57;2.35;;;27.30;52.90;;;;;;6174003;27;80974;-64
2023/07/20 11:47:45;;;;;;;7.85;2.38;;;27.30;53.60;;;;;;6161105;27;80557;-57
2023/07/20 11:50:46;;;;;;;4.75;3.10;;;27.30;52.40;;;;;;6171697;27;81083;-55
2023/07/20 11:53:47;;;;;;;3.83;2.13;;;27.30;53.70;;;;;;6169096;27;80422;-58
2023/07/20 11:56:47;;;;;;;7.47;2.35;;;27.30;54.30;;;;;;6176525;27;81774;-58
2023/07/20 11:59:48;;;;;;;4.40;2.28;;;27.30;53.80;;;;;;6173112;27;81385;-55
2023/07/20 12:02:48;;;;;;;3.75;2.78;;;27.30;53.80;;;;;;6173071;27;80562;-57
2023/07/20 12:05:50;;;;;;;3.58;2.80;;;27.40;53.90;;;;;;6172201;27;80931;-57
2023/07/20 12:08:51;;;;;;;7.60;2.92;;;27.40;54.10;;;;;;6173662;27;80590;-63
2023/07/20 12:11:51;;;;;;;4.78;2.78;;;27.40;54.40;;;;;;6154941;27;83362;-63
2023/07/20 12:14:52;;;;;;;4.53;3.17;;;27.30;53.40;;;;;;6169365;27;80241;-63
2023/07/20 12:17:53;;;;;;;2.78;2.28;;;27.30;52.50;;;;;;6169821;27;80617;-62
2023/07/20 12:20:53;;;;;;;5.63;3.53;;;27.30;52.70;;;;;;6170830;27;80851;-64
2023/07/20 12:23:54;;;;;;;6.57;3.42;;;27.40;53.10;;;;;;6176852;27;80956;-56
2023/07/20 12:26:54;;;;;;;6.72;3.58;;;27.40;53.10;;;;;;6171327;27;81754;-55
2023/07/20 12:29:57;;;;;;;4.53;3.35;;;27.30;52.80;;;;;;6164844;27;82683;-57
2023/07/20 12:32:57;;;;;;;7.68;3.13;;;27.30;52.00;;;;;;6164834;27;80677;-57
2023/07/20 12:35:59;;;;;;;5.07;3.65;;;27.20;52.20;;;;;;6166926;27;80998;-55
2023/07/20 12:39:01;;;;;;;8.30;4.15;;;27.20;52.50;;;;;;6166854;27;80063;-56
2023/07/20 12:42:01;;;;;;;7.43;3.35;;;27.10;52.40;;;;;;6158674;27;81664;-55
2023/07/20 12:45:02;;;;;;;4.95;3.50;;;27.10;52.50;;;;;;6162855;27;80844;-55
2023/07/20 12:48:02;;;;;;;6.63;3.10;;;27.10;52.40;;;;;;6172964;27;80844;-57
2023/07/20 12:51:03;;;;;;;7.03;3.47;;;27.20;52.70;;;;;;6170216;27;80261;-55
2023/07/20 12:54:04;;;;;;;9.15;3.63;;;27.20;52.90;;;;;;6163120;27;81124;-55
2023/07/20 12:57:04;;;;;;;8.65;3.40;;;27.20;52.40;;;;;;6172197;27;82353;-55
2023/07/20 13:00:05;;;;;;;8.02;3.70;;;27.30;52.20;;;;;;6180289;27;80768;-55
2023/07/20 13:03:06;;;;;;;6.32;3.60;;;27.30;51.80;;;;;;6183340;27;80798;-57
2023/07/20 13:06:07;;;;;;;12.27;3.50;;;27.30;52.20;;;;;;6177861;27;80442;-56
2023/07/20 13:09:08;;;;;;;3.28;2.97;;;27.30;51.30;;;;;;6173272;27;80852;-49
2023/07/20 13:12:08;;;;;;;5.95;2.88;;;27.30;51.00;;;;;;6187013;27;81177;-55
2023/07/20 13:15:09;;;;;;;4.53;3.65;;;27.40;51.50;;;;;;6175564;27;80308;-57
2023/07/20 13:18:09;;;;;;;5.43;3.10;;;27.40;49.90;;;;;;6157152;27;83611;-51
2023/07/20 13:21:11;;;;;;;6.70;3.00;;;27.40;50.60;;;;;;6057827;27;88879;-51
2023/07/20 13:24:11;;;;;;;7.43;2.70;;;27.40;50.30;;;;;;6057180;27;82191;-49
2023/07/20 13:27:12;;;;;;;6.70;3.05;;;27.40;50.00;;;;;;5988077;27;84661;-52
2023/07/20 13:30:16;;;;;;;3.80;3.10;;;27.50;50.10;;;;;;6165213;27;80216;-53
2023/07/20 13:33:16;;;;;;;5.25;3.25;;;27.50;50.70;;;;;;6152745;27;80572;-50
2023/07/20 13:36:17;;;;;;;7.80;2.80;;;27.50;50.50;;;;;;6162787;27;82355;-50
2023/07/20 13:39:18;;;;;;;4.97;3.03;;;27.40;50.70;;;;;;6164496;27;81487;-52
2023/07/20 13:42:18;;;;;;;4.85;3.38;;;27.40;50.30;;;;;;6168175;27;82047;-51
2023/07/20 13:45:19;;;;;;;4.78;3.22;;;27.40;50.10;;;;;;6163355;27;81353;-52
2023/07/20 13:48:22;;;;;;;5.85;3.10;;;27.30;49.70;;;;;;6154584;27;81678;-52
2023/07/20 13:51:23;;;;;;;5.72;3.03;;;27.30;50.30;;;;;;6156262;27;80974;-51
2023/07/20 13:54:23;;;;;;;6.93;3.33;;;27.30;49.90;;;;;;6174274;27;80831;-60
2023/07/20 13:57:24;;;;;;;4.85;3.38;;;27.30;49.70;;;;;;6174226;27;80530;-61
2023/07/20 14:00:30;;;;;;;6.38;3.30;;;27.30;49.80;;;;;;6163584;27;83057;-62
2023/07/20 14:03:30;;;;;;;5.22;3.22;;;27.30;50.30;;;;;;6157157;27;80937;-59
2023/07/20 14:06:31;;;;;;;6.78;3.00;;;27.30;50.40;;;;;;6150140;27;82091;-61
2023/07/20 14:09:31;;;;;;;9.02;2.65;;;27.30;50.00;;;;;;6167809;27;80524;-63
2023/07/20 14:12:32;;;;;;;5.57;3.10;;;27.20;49.20;;;;;;6167266;27;80558;-48
2023/07/20 14:15:32;;;;;;;6.07;2.95;;;27.20;49.60;;;;;;6157810;27;80516;-48
2023/07/20 14:18:33;;;;;;;14.48;3.47;;;27.20;49.40;;;;;;6154189;27;80637;-49
2023/07/20 14:21:33;;;;;;;5.05;3.15;;;27.20;49.90;;;;;;6155062;27;80906;-48
2023/07/20 14:24:34;;;;;;;5.30;3.15;;;27.20;49.80;;;;;;6165259;27;80584;-51
2023/07/20 14:27:34;;;;;;;6.30;2.65;;;27.20;50.00;;;;;;6175884;27;80496;-50
2023/07/20 14:30:35;;;;;;;9.27;2.80;;;27.10;50.20;;;;;;6177494;27;80871;-49
2023/07/20 14:33:35;;;;;;;3.65;2.53;;;27.10;49.60;;;;;;6169757;27;80165;-59
2023/07/20 14:36:36;;;;;;;3.80;2.80;;;27.10;49.20;;;;;;6163642;27;80916;-59
2023/07/20 14:39:36;;;;;;;6.47;2.90;;;27.20;49.70;;;;;;6163891;27;81069;-59
2023/07/20 14:42:37;;;;;;;4.97;2.33;;;27.10;49.50;;;;;;6168686;27;80253;-59
2023/07/20 14:45:38;;;;;;;50.53;24.77;;;27.10;49.60;;;;;;6173246;27;80476;-61
2023/07/20 14:48:38;;;;;;;46.67;23.33;;;27.20;50.00;;;;;;6172519;27;83309;-60
2023/07/20 14:51:43;;;;;;;162.32;87.88;;;27.10;49.60;;;;;;6175182;27;83368;-49
2023/07/20 14:54:43;;;;;;;150.75;80.80;;;27.20;48.70;;;;;;6171183;27;83769;-51
2023/07/20 14:57:44;;;;;;;213.75;106.97;;;27.20;49.80;;;;;;6167339;27;83436;-52
2023/07/20 15:00:45;;;;;;;79.82;39.97;;;27.20;48.80;;;;;;6157962;27;85817;-49
2023/07/20 15:03:45;;;;;;;69.75;29.70;;;27.20;48.70;;;;;;6160390;27;84554;-48
2023/07/20 15:06:46;;;;;;;70.47;33.15;;;27.10;48.70;;;;;;6158040;27;82812;-48
2023/07/20 15:09:46;;;;;;;105.97;47.58;;;27.10;49.30;;;;;;6163707;27;83832;-60
2023/07/20 15:12:47;;;;;;;45.45;19.23;;;27.10;49.70;;;;;;6163528;27;83163;-56
2023/07/20 15:15:48;;;;;;;12.95;6.45;;;27.10;49.70;;;;;;6153231;27;82935;-56
2023/07/20 15:18:48;;;;;;;8.82;4.45;;;27.00;49.20;;;;;;6162409;27;83669;-56
2023/07/20 15:21:49;;;;;;;14.60;6.40;;;26.90;49.30;;;;;;6164901;27;81150;-55
2023/07/20 15:24:50;;;;;;;12.32;5.45;;;26.90;49.70;;;;;;6163907;27;83683;-59
2023/07/20 15:27:50;;;;;;;8.00;4.40;;;26.90;49.90;;;;;;6161856;27;80948;-59
2023/07/20 15:30:51;;;;;;;13.20;4.32;;;26.90;50.30;;;;;;6159646;27;81525;-61
2023/07/20 15:33:52;;;;;;;14.05;4.53;;;26.90;52.80;;;;;;6160866;27;80489;-57
2023/07/20 15:36:52;;;;;;;5.80;2.78;;;26.80;53.80;;;;;;6162117;27;80701;-58